createdAt,value
2018-10-12T07:40:05.523Z,58.24
2018-10-12T07:42:10.050Z,53.14
2018-10-12T07:45:55.543Z,56.26
2018-10-12T07:46:29.297Z,55.91
2018-10-12T07:47:03.088Z,57.25
2018-10-12T07:47:36.815Z,56.54
2018-10-12T07:48:10.658Z,57.57
2018-10-12T07:48:44.345Z,57.89
2018-10-12T07:49:18.146Z,53.97
2018-10-12T07:49:52.945Z,55.17
2018-10-12T07:50:26.748Z,52.91
2018-10-12T07:51:00.827Z,54.37
2018-10-12T07:51:34.574Z,54.52
2018-10-12T07:54:38.377Z,53.04
2018-10-12T07:57:42.263Z,51.66
2018-10-12T08:00:47.635Z,45.96
2018-10-12T08:03:51.509Z,46.61
2018-10-12T08:06:55.311Z,47.07
2018-10-12T08:09:59.121Z,44.91
2018-10-12T08:13:02.973Z,43.50
2018-10-12T08:16:06.841Z,46.87
2018-10-12T08:19:11.953Z,46.12
2018-10-12T08:22:15.745Z,45.76
2018-10-12T08:25:19.601Z,47.14
2018-10-12T08:28:23.411Z,47.26
2018-10-12T08:31:27.359Z,46.45
2018-10-12T08:34:31.090Z,45.32
2018-10-12T08:37:34.932Z,44.23
2018-10-12T08:40:39.091Z,46.40
2018-10-12T08:43:42.895Z,47.53
2018-10-12T08:46:46.858Z,45.95
2018-10-12T08:49:50.700Z,42.91
2018-10-12T08:52:54.548Z,46.18
2018-10-12T08:55:58.393Z,41.22
2018-10-12T08:59:02.301Z,40.68
2018-10-12T09:02:06.618Z,46.14
2018-10-12T09:05:10.506Z,44.53
2018-10-12T09:08:14.302Z,44.77
2018-10-12T09:11:18.074Z,42.94
2018-10-12T09:14:21.969Z,40.04
2018-10-12T09:17:26.860Z,39.99
2018-10-12T09:20:30.733Z,40.31
2018-10-12T09:23:34.564Z,41.05
2018-10-12T09:26:38.357Z,40.74
2018-10-12T09:29:42.166Z,41.99
2018-10-12T09:32:45.932Z,40.91
2018-10-12T09:35:49.777Z,40.74
2018-10-12T09:38:53.549Z,41.98
2018-10-12T09:41:57.426Z,39.48
2018-10-12T09:45:01.151Z,35.70
2018-10-12T09:48:05.149Z,38.32
2018-10-12T09:51:09.058Z,38.61
2018-10-12T09:54:12.932Z,40.29
2018-10-12T09:57:22.260Z,40.92
2018-10-12T10:00:31.573Z,40.47
2018-10-12T10:03:40.765Z,39.96
2018-10-12T10:06:44.573Z,39.86
2018-10-12T10:09:48.322Z,40.39
2018-10-12T10:12:52.141Z,40.52
2018-10-12T10:15:55.928Z,40.90
2018-10-12T10:18:59.684Z,39.58
2018-10-12T10:22:03.965Z,39.44
2018-10-12T10:25:07.767Z,38.47
2018-10-12T10:28:11.480Z,37.37
2018-10-12T10:31:15.253Z,36.94
2018-10-12T10:34:19.102Z,37.22
2018-10-12T10:37:22.839Z,37.59
2018-10-12T10:40:26.808Z,39.15
2018-10-12T10:43:30.574Z,40.48
2018-10-12T10:46:34.385Z,39.42
2018-10-12T10:49:38.482Z,36.93
2018-10-12T10:52:42.238Z,40.96
2018-10-12T10:55:46.045Z,44.91
2018-10-12T10:58:49.879Z,41.63
2018-10-12T11:01:53.637Z,40.60
2018-10-12T11:04:57.461Z,41.17
2018-10-12T11:08:01.311Z,42.87
2018-10-12T11:11:05.062Z,44.21
2018-10-12T11:14:08.830Z,45.42
2018-10-12T11:17:12.730Z,42.82
2018-10-12T11:20:16.489Z,41.59
2018-10-12T11:23:20.269Z,41.50
2018-10-12T11:26:24.104Z,39.46
2018-10-12T11:29:27.854Z,34.90
2018-10-12T11:32:31.919Z,39.04
2018-10-12T11:35:35.709Z,39.50
2018-10-12T11:38:39.502Z,39.61
2018-10-12T11:41:43.293Z,38.59
2018-10-12T11:44:47.121Z,39.18
2018-10-12T11:47:50.898Z,38.72
2018-10-12T11:50:54.663Z,38.27
2018-10-12T11:53:58.409Z,37.86
2018-10-12T11:57:02.193Z,34.66
2018-10-12T12:00:06.253Z,35.94
2018-10-12T12:03:09.986Z,36.42
2018-10-12T12:06:14.308Z,37.50
2018-10-12T12:09:18.164Z,37.00
2018-10-12T12:12:21.995Z,35.58
2018-10-12T12:15:25.809Z,37.29
2018-10-12T12:18:29.577Z,35.97
2018-10-12T12:21:33.365Z,38.94
2018-10-12T12:24:37.141Z,37.36
2018-10-12T12:27:41.874Z,37.58
2018-10-12T12:30:46.265Z,35.37
2018-10-12T12:33:50.074Z,38.35
2018-10-12T12:36:53.860Z,39.78
2018-10-12T12:39:57.923Z,39.16
2018-10-12T12:43:01.756Z,41.89
2018-10-12T12:46:05.588Z,44.01
2018-10-12T12:49:09.635Z,45.62
2018-10-12T12:52:14.138Z,46.70
2018-10-12T12:55:18.910Z,46.68
2018-10-12T12:58:22.713Z,46.60
2018-10-12T13:01:26.500Z,47.26
2018-10-12T13:04:30.269Z,48.34
2018-10-12T13:07:34.077Z,47.77
2018-10-12T13:10:38.010Z,48.31
2018-10-12T13:13:41.825Z,48.39
2018-10-12T13:16:46.230Z,48.68
2018-10-12T13:19:49.982Z,48.21
2018-10-12T13:22:53.794Z,49.53
2018-10-12T13:25:57.641Z,49.20
2018-10-12T13:29:01.370Z,48.96
2018-10-12T13:32:05.399Z,49.24
2018-10-12T13:35:09.023Z,48.95
2018-10-12T13:38:12.833Z,49.26
2018-10-12T13:41:16.890Z,49.61
2018-10-12T13:44:20.669Z,49.91
2018-10-12T13:47:24.481Z,49.46
2018-10-12T13:50:28.321Z,49.86
2018-10-12T13:53:32.266Z,50.57
2018-10-12T13:56:36.069Z,50.06
2018-10-12T13:59:39.873Z,50.53
2018-10-12T14:02:43.672Z,50.58
2018-10-12T14:05:47.543Z,50.05
2018-10-12T14:08:51.287Z,50.97
2018-10-12T14:11:55.082Z,51.00
2018-10-12T14:14:58.897Z,50.07
2018-10-12T14:18:02.778Z,51.09
2018-10-12T14:21:06.500Z,50.81
2018-10-12T14:24:10.300Z,51.23
2018-10-12T14:27:14.103Z,51.53
2018-10-12T14:30:17.869Z,51.73
2018-10-12T14:33:21.629Z,51.59
2018-10-12T14:36:25.409Z,51.48
2018-10-12T14:39:29.312Z,51.14
2018-10-12T14:42:33.239Z,50.72
2018-10-12T14:45:37.046Z,51.74
2018-10-12T14:48:41.045Z,51.83
2018-10-12T14:51:44.844Z,50.32
2018-10-12T14:54:48.631Z,51.02
2018-10-12T14:57:52.410Z,50.39
2018-10-12T15:00:56.200Z,50.79
2018-10-12T15:03:59.956Z,50.65
2018-10-12T15:07:03.757Z,51.62
2018-10-12T15:10:07.870Z,51.03
2018-10-12T15:13:11.649Z,51.78
2018-10-12T15:16:15.410Z,51.61
2018-10-12T15:19:19.239Z,51.24
2018-10-12T15:22:22.989Z,51.15
2018-10-12T15:25:26.775Z,50.92
2018-10-12T15:28:30.632Z,51.71
2018-10-12T15:31:34.405Z,51.91
2018-10-12T15:34:38.221Z,52.19
2018-10-12T15:37:42.712Z,51.31
2018-10-12T15:40:46.661Z,51.47
2018-10-12T15:43:50.497Z,52.19
2018-10-12T15:46:54.387Z,51.99
2018-10-12T15:49:58.168Z,52.00
2018-10-12T15:53:01.969Z,53.08
2018-10-12T15:56:06.407Z,52.38
2018-10-12T15:59:10.117Z,52.64
2018-10-12T16:02:14.211Z,52.78
2018-10-12T16:05:17.998Z,53.05
2018-10-12T16:08:22.040Z,53.76
2018-10-12T16:11:26.072Z,53.89
2018-10-12T16:14:29.920Z,54.28
2018-10-12T16:17:33.639Z,54.26
2018-10-12T16:20:37.417Z,53.89
2018-10-12T16:23:41.210Z,53.92
2018-10-12T16:26:45.009Z,53.95
2018-10-12T16:29:48.858Z,54.61
2018-10-12T16:32:52.677Z,55.12
2018-10-12T16:35:57.551Z,55.22
2018-10-12T16:39:01.214Z,54.69
2018-10-12T16:42:04.977Z,55.29
2018-10-12T16:45:09.229Z,55.09
2018-10-12T16:48:13.497Z,56.20
2018-10-12T16:51:17.390Z,56.40
2018-10-12T16:54:21.174Z,55.87
2018-10-12T16:57:31.912Z,56.59
2018-10-12T17:00:37.965Z,56.45
2018-10-12T17:03:42.102Z,56.48
2018-10-12T17:06:45.927Z,56.18
2018-10-12T17:09:49.692Z,57.19
2018-10-12T17:12:53.490Z,57.47
2018-10-12T17:15:57.327Z,57.78
2018-10-12T17:19:01.147Z,57.79
2018-10-12T17:22:04.926Z,57.93
2018-10-12T17:25:08.911Z,57.61
2018-10-12T17:28:12.677Z,57.86
2018-10-12T17:31:16.425Z,57.89
2018-10-12T17:34:20.281Z,58.23
2018-10-12T17:37:24.038Z,58.42
2018-10-12T17:40:27.808Z,58.94
2018-10-12T17:43:31.567Z,58.61
2018-10-12T17:46:35.378Z,58.85
2018-10-12T17:49:39.174Z,58.71
2018-10-12T17:52:42.964Z,58.46
2018-10-12T17:55:46.805Z,58.91
2018-10-12T17:58:52.004Z,58.53
2018-10-12T18:01:55.766Z,59.69
2018-10-12T18:04:59.620Z,59.25
2018-10-12T18:08:03.436Z,59.08
2018-10-12T18:11:07.486Z,59.45
2018-10-12T18:14:11.229Z,59.34
2018-10-12T18:17:16.103Z,60.08
2018-10-12T18:20:19.877Z,60.54
2018-10-12T18:23:23.649Z,60.85
2018-10-12T18:26:27.439Z,60.29
2018-10-12T18:29:31.352Z,60.53
2018-10-12T18:32:35.133Z,60.60
2018-10-12T18:35:38.973Z,60.71
2018-10-12T18:38:42.821Z,61.34
2018-10-12T18:41:46.645Z,60.90
2018-10-12T18:44:50.449Z,61.13
2018-10-12T18:47:55.050Z,60.47
2018-10-12T18:50:58.882Z,60.70
2018-10-12T18:54:02.766Z,60.53
2018-10-12T18:57:06.508Z,61.29
2018-10-12T19:00:10.413Z,60.87
2018-10-12T19:03:14.081Z,61.11
2018-10-12T19:06:17.865Z,60.55
2018-10-12T19:09:21.646Z,61.31
2018-10-12T19:12:25.764Z,61.23
2018-10-12T19:58:37.246Z,53.37
2018-10-12T20:01:41.313Z,56.34
2018-10-12T20:04:45.195Z,58.71
2018-10-12T20:07:49.048Z,57.88
2018-10-12T20:10:52.869Z,59.16
2018-10-12T20:13:57.285Z,59.33
2018-10-12T20:17:01.119Z,58.37
2018-10-12T20:20:05.214Z,59.57
2018-10-12T20:23:09.092Z,60.12
2018-10-12T20:26:12.891Z,60.36
2018-10-12T20:29:16.733Z,60.17
2018-10-12T20:32:20.505Z,60.36
2018-10-12T20:35:24.359Z,60.40
2018-10-12T20:38:28.195Z,59.69
2018-10-12T20:41:32.079Z,60.68
2018-10-12T20:44:35.986Z,60.25
2018-10-12T20:47:39.840Z,59.50
2018-10-12T20:50:43.827Z,60.43
2018-10-12T20:53:47.644Z,60.20
2018-10-12T20:56:51.715Z,61.33
2018-10-12T20:59:55.515Z,60.63
2018-10-12T21:02:59.308Z,60.91
2018-10-12T21:06:03.145Z,61.97
2018-10-12T21:09:08.948Z,61.76
2018-10-12T21:12:12.731Z,61.20
2018-10-12T21:15:16.652Z,61.72
2018-10-12T21:18:20.480Z,62.12
2018-10-12T21:21:24.337Z,60.75
2018-10-12T21:24:28.214Z,61.41
2018-10-12T21:27:32.993Z,62.11
2018-10-12T21:30:36.804Z,62.24
2018-10-12T21:33:41.232Z,61.22
2018-10-12T21:36:45.231Z,62.81
2018-10-12T21:39:48.988Z,62.32
2018-10-12T21:42:54.035Z,62.31
2018-10-12T21:45:57.842Z,62.00
2018-10-12T21:49:01.659Z,62.80
2018-10-12T21:52:06.600Z,62.32
2018-10-12T21:55:10.427Z,62.93
2018-10-12T21:58:14.502Z,63.39
2018-10-12T22:01:18.282Z,64.48
2018-10-12T22:04:27.909Z,62.79
2018-10-12T22:07:31.805Z,63.43
2018-10-12T22:10:35.752Z,63.16
2018-10-12T22:13:39.596Z,62.96
2018-10-12T22:16:43.380Z,63.33
2018-10-12T22:19:47.179Z,62.46
2018-10-12T22:22:51.192Z,62.85
2018-10-12T22:25:55.051Z,63.69
2018-10-12T22:28:58.974Z,63.01
2018-10-12T22:32:02.797Z,63.22
2018-10-12T22:35:07.554Z,63.45
2018-10-12T22:38:11.450Z,63.06
2018-10-12T22:41:16.929Z,62.47
2018-10-12T22:44:20.711Z,63.54
2018-10-12T22:47:24.537Z,62.98
2018-10-12T22:50:28.318Z,63.40
2018-10-12T22:53:32.178Z,62.49
2018-10-12T22:56:36.062Z,63.88
2018-10-12T22:59:39.953Z,63.21
2018-10-12T23:02:44.378Z,62.47
2018-10-12T23:05:48.173Z,62.22
2018-10-12T23:08:52.142Z,62.00
2018-10-12T23:11:55.936Z,62.08
2018-10-12T23:14:59.910Z,61.72
2018-10-12T23:18:03.863Z,61.65
2018-10-12T23:21:08.215Z,61.09
2018-10-12T23:24:13.941Z,62.29
2018-10-12T23:27:17.766Z,61.21
2018-10-12T23:30:21.602Z,61.05
2018-10-12T23:33:36.755Z,61.32
2018-10-12T23:36:40.558Z,61.19
2018-10-12T23:39:44.440Z,61.36
2018-10-12T23:42:48.288Z,60.71
2018-10-12T23:45:52.193Z,60.54
2018-10-12T23:48:56.584Z,60.91
2018-10-12T23:52:00.316Z,59.82
2018-10-12T23:55:04.113Z,60.97
2018-10-12T23:58:09.046Z,60.91
